sensor_id;sensor_type;location;lat;lon;timestamp;temperature;humidity
14182;DHT22;7171;50.936;6.764;2022-08-18T00:01:03;20.30;99.90
14182;DHT22;7171;50.936;6.764;2022-08-18T00:03:30;20.30;99.90
14182;DHT22;7171;50.936;6.764;2022-08-18T00:05:57;20.30;99.90
14182;DHT22;7171;50.936;6.764;2022-08-18T00:08:23;20.20;99.90
14182;DHT22;7171;50.936;6.764;2022-08-18T00:10:52;20.20;99.90
14182;DHT22;7171;50.936;6.764;2022-08-18T00:13:20;20.10;99.90
14182;DHT22;7171;50.936;6.764;2022-08-18T00:15:47;20.10;99.90
14182;DHT22;7171;50.936;6.764;2022-08-18T00:18:13;20.00;99.90
14182;DHT22;7171;50.936;6.764;2022-08-18T00:20:40;20.00;99.90
14182;DHT22;7171;50.936;6.764;2022-08-18T00:23:07;19.90;99.90
14182;DHT22;7171;50.936;6.764;2022-08-18T00:25:34;19.90;99.90
14182;DHT22;7171;50.936;6.764;2022-08-18T00:28:02;19.90;99.90
14182;DHT22;7171;50.936;6.764;2022-08-18T00:30:31;19.90;99.90
14182;DHT22;7171;50.936;6.764;2022-08-18T00:32:59;19.80;99.90
14182;DHT22;7171;50.936;6.764;2022-08-18T00:35:29;19.80;99.90
14182;DHT22;7171;50.936;6.764;2022-08-18T00:37:58;19.80;99.90
14182;DHT22;7171;50.936;6.764;2022-08-18T00:40:27;19.80;99.90
14182;DHT22;7171;50.936;6.764;2022-08-18T00:42:57;19.80;99.90
14182;DHT22;7171;50.936;6.764;2022-08-18T00:45:28;19.70;99.90
14182;DHT22;7171;50.936;6.764;2022-08-18T00:47:56;19.70;99.90
14182;DHT22;7171;50.936;6.764;2022-08-18T00:50:27;19.70;99.90
14182;DHT22;7171;50.936;6.764;2022-08-18T00:52:59;19.70;99.90
14182;DHT22;7171;50.936;6.764;2022-08-18T00:55:29;19.60;99.90
14182;DHT22;7171;50.936;6.764;2022-08-18T00:58:02;19.60;99.90
14182;DHT22;7171;50.936;6.764;2022-08-18T01:00:31;19.60;99.90
14182;DHT22;7171;50.936;6.764;2022-08-18T01:03:03;19.60;99.90
14182;DHT22;7171;50.936;6.764;2022-08-18T01:05:32;19.70;99.90
14182;DHT22;7171;50.936;6.764;2022-08-18T01:08:05;19.70;99.90
14182;DHT22;7171;50.936;6.764;2022-08-18T01:10:35;19.80;99.90
14182;DHT22;7171;50.936;6.764;2022-08-18T01:13:03;19.90;99.90
14182;DHT22;7171;50.936;6.764;2022-08-18T01:15:30;19.90;99.90
14182;DHT22;7171;50.936;6.764;2022-08-18T01:17:59;20.00;99.90
14182;DHT22;7171;50.936;6.764;2022-08-18T01:21:04;20.00;99.90
14182;DHT22;7171;50.936;6.764;2022-08-18T01:23:54;20.10;99.90
14182;DHT22;7171;50.936;6.764;2022-08-18T01:26:22;20.10;99.90
14182;DHT22;7171;50.936;6.764;2022-08-18T01:28:48;20.10;99.90
14182;DHT22;7171;50.936;6.764;2022-08-18T01:31:30;20.10;99.90
14182;DHT22;7171;50.936;6.764;2022-08-18T01:33:59;20.10;99.90
14182;DHT22;7171;50.936;6.764;2022-08-18T01:36:27;20.10;99.90
14182;DHT22;7171;50.936;6.764;2022-08-18T01:38:56;20.10;99.90
14182;DHT22;7171;50.936;6.764;2022-08-18T01:41:23;20.10;99.90
14182;DHT22;7171;50.936;6.764;2022-08-18T01:43:50;20.10;99.90
14182;DHT22;7171;50.936;6.764;2022-08-18T01:46:18;20.10;99.90
14182;DHT22;7171;50.936;6.764;2022-08-18T01:48:46;20.10;99.90
14182;DHT22;7171;50.936;6.764;2022-08-18T01:51:14;20.10;99.90
14182;DHT22;7171;50.936;6.764;2022-08-18T01:53:42;20.00;99.90
14182;DHT22;7171;50.936;6.764;2022-08-18T01:56:11;20.00;99.90
14182;DHT22;7171;50.936;6.764;2022-08-18T01:58:42;19.90;99.90
14182;DHT22;7171;50.936;6.764;2022-08-18T02:01:09;19.90;99.90
14182;DHT22;7171;50.936;6.764;2022-08-18T02:03:40;19.90;99.90
14182;DHT22;7171;50.936;6.764;2022-08-18T02:06:10;19.80;99.90
14182;DHT22;7171;50.936;6.764;2022-08-18T02:08:38;19.80;99.90
14182;DHT22;7171;50.936;6.764;2022-08-18T02:11:06;19.70;99.90
14182;DHT22;7171;50.936;6.764;2022-08-18T02:13:34;19.60;99.90
14182;DHT22;7171;50.936;6.764;2022-08-18T02:16:02;19.60;99.90
14182;DHT22;7171;50.936;6.764;2022-08-18T02:18:33;19.60;99.90
14182;DHT22;7171;50.936;6.764;2022-08-18T02:21:06;19.50;99.90
14182;DHT22;7171;50.936;6.764;2022-08-18T02:23:34;19.50;99.90
14182;DHT22;7171;50.936;6.764;2022-08-18T02:26:03;19.40;99.90
14182;DHT22;7171;50.936;6.764;2022-08-18T02:28:30;19.40;99.90
14182;DHT22;7171;50.936;6.764;2022-08-18T02:31:03;19.30;99.90
14182;DHT22;7171;50.936;6.764;2022-08-18T02:33:30;19.20;99.90
14182;DHT22;7171;50.936;6.764;2022-08-18T02:35:57;19.30;99.90
14182;DHT22;7171;50.936;6.764;2022-08-18T02:38:23;19.30;99.90
14182;DHT22;7171;50.936;6.764;2022-08-18T02:40:54;19.20;99.90
14182;DHT22;7171;50.936;6.764;2022-08-18T02:43:21;19.30;99.90
14182;DHT22;7171;50.936;6.764;2022-08-18T02:45:48;19.30;99.90
14182;DHT22;7171;50.936;6.764;2022-08-18T02:48:16;19.40;99.90
14182;DHT22;7171;50.936;6.764;2022-08-18T02:50:46;19.40;99.90
14182;DHT22;7171;50.936;6.764;2022-08-18T02:53:13;19.40;99.90
14182;DHT22;7171;50.936;6.764;2022-08-18T02:55:45;19.50;99.90
14182;DHT22;7171;50.936;6.764;2022-08-18T02:58:11;19.50;99.90
14182;DHT22;7171;50.936;6.764;2022-08-18T03:00:38;19.60;99.90
14182;DHT22;7171;50.936;6.764;2022-08-18T03:03:05;19.60;99.90
14182;DHT22;7171;50.936;6.764;2022-08-18T03:05:33;19.60;99.90
14182;DHT22;7171;50.936;6.764;2022-08-18T03:08:00;19.60;99.90
14182;DHT22;7171;50.936;6.764;2022-08-18T03:10:27;19.60;99.90
14182;DHT22;7171;50.936;6.764;2022-08-18T03:12:54;19.70;99.90
14182;DHT22;7171;50.936;6.764;2022-08-18T03:15:21;19.70;99.90
14182;DHT22;7171;50.936;6.764;2022-08-18T03:17:48;19.70;99.90
14182;DHT22;7171;50.936;6.764;2022-08-18T03:20:16;19.70;99.90
14182;DHT22;7171;50.936;6.764;2022-08-18T03:22:44;19.70;99.90
14182;DHT22;7171;50.936;6.764;2022-08-18T03:25:11;19.70;99.90
14182;DHT22;7171;50.936;6.764;2022-08-18T03:27:37;19.70;99.90
14182;DHT22;7171;50.936;6.764;2022-08-18T03:30:05;19.70;99.90
14182;DHT22;7171;50.936;6.764;2022-08-18T03:32:32;19.70;99.90
14182;DHT22;7171;50.936;6.764;2022-08-18T03:34:59;19.70;99.90
14182;DHT22;7171;50.936;6.764;2022-08-18T03:37:26;19.70;99.90
14182;DHT22;7171;50.936;6.764;2022-08-18T03:39:54;19.70;99.90
14182;DHT22;7171;50.936;6.764;2022-08-18T03:42:21;19.70;99.90
14182;DHT22;7171;50.936;6.764;2022-08-18T03:44:48;19.70;99.90
14182;DHT22;7171;50.936;6.764;2022-08-18T03:47:15;19.60;99.90
14182;DHT22;7171;50.936;6.764;2022-08-18T03:49:42;19.60;99.90
14182;DHT22;7171;50.936;6.764;2022-08-18T03:52:10;19.60;99.90
14182;DHT22;7171;50.936;6.764;2022-08-18T03:54:37;19.60;99.90
14182;DHT22;7171;50.936;6.764;2022-08-18T03:57:08;19.60;99.90
14182;DHT22;7171;50.936;6.764;2022-08-18T03:59:36;19.60;99.90
14182;DHT22;7171;50.936;6.764;2022-08-18T04:02:06;19.50;99.90
14182;DHT22;7171;50.936;6.764;2022-08-18T04:04:33;19.60;99.90
14182;DHT22;7171;50.936;6.764;2022-08-18T04:07:02;19.60;99.90
14182;DHT22;7171;50.936;6.764;2022-08-18T04:09:32;19.60;99.90
14182;DHT22;7171;50.936;6.764;2022-08-18T04:12:04;19.60;99.90
14182;DHT22;7171;50.936;6.764;2022-08-18T04:14:39;19.60;99.90
14182;DHT22;7171;50.936;6.764;2022-08-18T04:17:06;19.60;99.90
14182;DHT22;7171;50.936;6.764;2022-08-18T04:19:34;19.60;99.90
14182;DHT22;7171;50.936;6.764;2022-08-18T04:22:03;19.60;99.90
14182;DHT22;7171;50.936;6.764;2022-08-18T04:24:31;19.60;99.90
14182;DHT22;7171;50.936;6.764;2022-08-18T04:27:00;19.60;99.90
14182;DHT22;7171;50.936;6.764;2022-08-18T04:29:27;19.60;99.90
14182;DHT22;7171;50.936;6.764;2022-08-18T04:31:55;19.60;99.90
14182;DHT22;7171;50.936;6.764;2022-08-18T04:34:22;19.60;99.90
14182;DHT22;7171;50.936;6.764;2022-08-18T04:36:50;19.60;99.90
14182;DHT22;7171;50.936;6.764;2022-08-18T04:39:19;19.60;99.90
14182;DHT22;7171;50.936;6.764;2022-08-18T04:41:46;19.60;99.90
14182;DHT22;7171;50.936;6.764;2022-08-18T04:44:13;19.60;99.90
14182;DHT22;7171;50.936;6.764;2022-08-18T04:46:44;19.60;99.90
14182;DHT22;7171;50.936;6.764;2022-08-18T04:49:14;19.60;99.90
14182;DHT22;7171;50.936;6.764;2022-08-18T04:51:44;19.60;99.90
14182;DHT22;7171;50.936;6.764;2022-08-18T04:54:34;19.60;99.90
14182;DHT22;7171;50.936;6.764;2022-08-18T04:57:07;19.70;99.90
14182;DHT22;7171;50.936;6.764;2022-08-18T04:59:34;19.60;99.90
14182;DHT22;7171;50.936;6.764;2022-08-18T05:02:02;19.70;99.90
14182;DHT22;7171;50.936;6.764;2022-08-18T05:04:34;19.70;99.90
14182;DHT22;7171;50.936;6.764;2022-08-18T05:07:02;19.70;99.90
14182;DHT22;7171;50.936;6.764;2022-08-18T05:09:29;19.70;99.90
14182;DHT22;7171;50.936;6.764;2022-08-18T05:11:56;19.70;99.90
14182;DHT22;7171;50.936;6.764;2022-08-18T05:14:23;19.80;99.90
14182;DHT22;7171;50.936;6.764;2022-08-18T05:16:50;19.70;99.90
14182;DHT22;7171;50.936;6.764;2022-08-18T05:19:19;19.80;99.90
14182;DHT22;7171;50.936;6.764;2022-08-18T05:21:48;19.80;99.90
14182;DHT22;7171;50.936;6.764;2022-08-18T05:24:15;19.90;99.90
14182;DHT22;7171;50.936;6.764;2022-08-18T05:26:42;19.80;99.90
14182;DHT22;7171;50.936;6.764;2022-08-18T05:29:09;19.90;99.90
14182;DHT22;7171;50.936;6.764;2022-08-18T05:31:36;19.90;99.90
14182;DHT22;7171;50.936;6.764;2022-08-18T05:34:03;20.00;99.90
14182;DHT22;7171;50.936;6.764;2022-08-18T05:36:57;19.90;99.90
14182;DHT22;7171;50.936;6.764;2022-08-18T05:39:29;20.00;99.90
14182;DHT22;7171;50.936;6.764;2022-08-18T05:42:02;20.00;99.90
14182;DHT22;7171;50.936;6.764;2022-08-18T05:44:32;20.00;99.90
14182;DHT22;7171;50.936;6.764;2022-08-18T05:47:03;20.00;99.90
14182;DHT22;7171;50.936;6.764;2022-08-18T05:49:32;20.00;99.90
14182;DHT22;7171;50.936;6.764;2022-08-18T05:52:02;20.10;99.90
14182;DHT22;7171;50.936;6.764;2022-08-18T05:54:36;20.00;99.90
14182;DHT22;7171;50.936;6.764;2022-08-18T05:57:24;20.00;99.90
14182;DHT22;7171;50.936;6.764;2022-08-18T05:59:54;20.00;99.90
14182;DHT22;7171;50.936;6.764;2022-08-18T06:02:29;20.10;99.90
14182;DHT22;7171;50.936;6.764;2022-08-18T06:05:00;20.00;99.90
14182;DHT22;7171;50.936;6.764;2022-08-18T06:07:33;20.00;99.90
14182;DHT22;7171;50.936;6.764;2022-08-18T06:10:02;20.10;99.90
14182;DHT22;7171;50.936;6.764;2022-08-18T06:12:32;20.10;99.90
14182;DHT22;7171;50.936;6.764;2022-08-18T06:15:02;20.10;99.90
14182;DHT22;7171;50.936;6.764;2022-08-18T06:20:28;20.10;99.90
14182;DHT22;7171;50.936;6.764;2022-08-18T06:23:07;20.10;99.90
14182;DHT22;7171;50.936;6.764;2022-08-18T06:25:49;20.10;99.90
14182;DHT22;7171;50.936;6.764;2022-08-18T06:28:20;20.10;99.90
14182;DHT22;7171;50.936;6.764;2022-08-18T06:30:53;20.10;99.90
14182;DHT22;7171;50.936;6.764;2022-08-18T06:33:40;20.10;99.90
14182;DHT22;7171;50.936;6.764;2022-08-18T06:36:14;20.00;99.90
14182;DHT22;7171;50.936;6.764;2022-08-18T06:38:54;20.00;99.90
14182;DHT22;7171;50.936;6.764;2022-08-18T06:41:31;20.00;99.90
14182;DHT22;7171;50.936;6.764;2022-08-18T06:44:02;20.00;99.90
14182;DHT22;7171;50.936;6.764;2022-08-18T06:46:36;20.00;99.90
14182;DHT22;7171;50.936;6.764;2022-08-18T06:49:08;20.00;99.90
14182;DHT22;7171;50.936;6.764;2022-08-18T06:51:36;19.90;99.90
14182;DHT22;7171;50.936;6.764;2022-08-18T06:54:06;19.90;99.90
14182;DHT22;7171;50.936;6.764;2022-08-18T06:56:46;19.90;99.90
14182;DHT22;7171;50.936;6.764;2022-08-18T06:59:18;19.90;99.90
14182;DHT22;7171;50.936;6.764;2022-08-18T07:01:47;19.90;99.90
14182;DHT22;7171;50.936;6.764;2022-08-18T07:04:38;19.90;99.90
14182;DHT22;7171;50.936;6.764;2022-08-18T07:07:18;19.80;99.90
14182;DHT22;7171;50.936;6.764;2022-08-18T07:09:47;19.80;99.90
14182;DHT22;7171;50.936;6.764;2022-08-18T07:12:20;19.90;99.90
14182;DHT22;7171;50.936;6.764;2022-08-18T07:14:49;19.90;99.90
14182;DHT22;7171;50.936;6.764;2022-08-18T07:17:21;19.90;99.90
14182;DHT22;7171;50.936;6.764;2022-08-18T07:19:55;19.90;99.90
14182;DHT22;7171;50.936;6.764;2022-08-18T07:22:22;19.90;99.90
14182;DHT22;7171;50.936;6.764;2022-08-18T07:24:53;19.90;99.90
14182;DHT22;7171;50.936;6.764;2022-08-18T07:27:22;19.90;99.90
14182;DHT22;7171;50.936;6.764;2022-08-18T07:30:08;19.90;99.90
14182;DHT22;7171;50.936;6.764;2022-08-18T07:32:39;19.90;99.90
14182;DHT22;7171;50.936;6.764;2022-08-18T07:35:08;19.90;99.90
14182;DHT22;7171;50.936;6.764;2022-08-18T07:37:42;19.90;99.90
14182;DHT22;7171;50.936;6.764;2022-08-18T07:40:21;19.90;99.90
14182;DHT22;7171;50.936;6.764;2022-08-18T07:42:53;19.90;99.90
14182;DHT22;7171;50.936;6.764;2022-08-18T07:45:28;20.00;99.90
14182;DHT22;7171;50.936;6.764;2022-08-18T07:48:01;20.00;99.90
14182;DHT22;7171;50.936;6.764;2022-08-18T07:50:33;20.00;99.90
14182;DHT22;7171;50.936;6.764;2022-08-18T07:53:07;20.00;99.90
14182;DHT22;7171;50.936;6.764;2022-08-18T07:55:40;20.00;99.90
14182;DHT22;7171;50.936;6.764;2022-08-18T07:58:14;20.10;99.90
14182;DHT22;7171;50.936;6.764;2022-08-18T08:00:48;20.10;99.90
14182;DHT22;7171;50.936;6.764;2022-08-18T08:06:03;20.20;99.90
14182;DHT22;7171;50.936;6.764;2022-08-18T08:08:39;20.10;99.90
14182;DHT22;7171;50.936;6.764;2022-08-18T08:11:19;20.10;99.90
14182;DHT22;7171;50.936;6.764;2022-08-18T08:14:03;20.10;99.90
14182;DHT22;7171;50.936;6.764;2022-08-18T08:16:40;20.10;99.90
14182;DHT22;7171;50.936;6.764;2022-08-18T08:19:28;20.10;99.90
14182;DHT22;7171;50.936;6.764;2022-08-18T08:22:04;20.10;99.90
14182;DHT22;7171;50.936;6.764;2022-08-18T08:24:38;20.10;99.90
14182;DHT22;7171;50.936;6.764;2022-08-18T08:27:16;20.10;99.90
14182;DHT22;7171;50.936;6.764;2022-08-18T08:29:50;20.20;99.90
14182;DHT22;7171;50.936;6.764;2022-08-18T08:32:25;20.20;99.90
14182;DHT22;7171;50.936;6.764;2022-08-18T08:34:57;20.20;99.90
14182;DHT22;7171;50.936;6.764;2022-08-18T08:37:32;20.20;99.90
14182;DHT22;7171;50.936;6.764;2022-08-18T08:40:05;20.30;99.90
14182;DHT22;7171;50.936;6.764;2022-08-18T08:42:40;20.30;99.90
14182;DHT22;7171;50.936;6.764;2022-08-18T08:45:13;20.40;99.90
14182;DHT22;7171;50.936;6.764;2022-08-18T08:47:46;20.40;99.90
14182;DHT22;7171;50.936;6.764;2022-08-18T08:50:18;20.40;99.90
14182;DHT22;7171;50.936;6.764;2022-08-18T08:52:50;20.40;99.90
14182;DHT22;7171;50.936;6.764;2022-08-18T08:55:22;20.50;99.90
14182;DHT22;7171;50.936;6.764;2022-08-18T08:57:54;20.50;99.90
14182;DHT22;7171;50.936;6.764;2022-08-18T09:00:24;20.50;99.90
14182;DHT22;7171;50.936;6.764;2022-08-18T09:03:05;20.50;99.90
14182;DHT22;7171;50.936;6.764;2022-08-18T09:05:37;20.50;99.90
14182;DHT22;7171;50.936;6.764;2022-08-18T09:08:19;20.50;99.90
14182;DHT22;7171;50.936;6.764;2022-08-18T09:11:14;20.60;99.90
14182;DHT22;7171;50.936;6.764;2022-08-18T09:14:20;20.60;99.90
14182;DHT22;7171;50.936;6.764;2022-08-18T09:16:58;20.60;99.90
14182;DHT22;7171;50.936;6.764;2022-08-18T09:19:48;20.70;99.90
14182;DHT22;7171;50.936;6.764;2022-08-18T09:22:30;20.70;99.90
14182;DHT22;7171;50.936;6.764;2022-08-18T09:24:58;20.70;99.90
14182;DHT22;7171;50.936;6.764;2022-08-18T09:27:37;20.70;99.90
14182;DHT22;7171;50.936;6.764;2022-08-18T09:33:23;20.80;99.90
14182;DHT22;7171;50.936;6.764;2022-08-18T09:36:09;20.80;99.90
14182;DHT22;7171;50.936;6.764;2022-08-18T09:38:48;20.80;99.90
14182;DHT22;7171;50.936;6.764;2022-08-18T09:41:39;20.80;99.90
14182;DHT22;7171;50.936;6.764;2022-08-18T09:44:14;20.90;99.90
14182;DHT22;7171;50.936;6.764;2022-08-18T09:47:00;21.00;99.90
14182;DHT22;7171;50.936;6.764;2022-08-18T09:49:44;21.00;99.90
14182;DHT22;7171;50.936;6.764;2022-08-18T09:52:47;22.20;99.90
14182;DHT22;7171;50.936;6.764;2022-08-18T09:58:18;21.20;99.90
14182;DHT22;7171;50.936;6.764;2022-08-18T10:01:20;21.30;99.90
14182;DHT22;7171;50.936;6.764;2022-08-18T10:07:18;21.40;99.90
14182;DHT22;7171;50.936;6.764;2022-08-18T10:09:58;21.40;99.90
14182;DHT22;7171;50.936;6.764;2022-08-18T10:21:11;21.40;99.90
14182;DHT22;7171;50.936;6.764;2022-08-18T10:23:57;21.40;99.90
14182;DHT22;7171;50.936;6.764;2022-08-18T10:29:50;21.50;99.90
14182;DHT22;7171;50.936;6.764;2022-08-18T10:32:42;21.50;99.90
14182;DHT22;7171;50.936;6.764;2022-08-18T10:37:58;21.60;99.90
14182;DHT22;7171;50.936;6.764;2022-08-18T10:40:27;21.70;99.90
14182;DHT22;7171;50.936;6.764;2022-08-18T10:43:00;21.80;99.90
14182;DHT22;7171;50.936;6.764;2022-08-18T10:45:35;21.80;99.90
14182;DHT22;7171;50.936;6.764;2022-08-18T10:48:09;21.90;99.90
14182;DHT22;7171;50.936;6.764;2022-08-18T10:50:40;21.90;99.90
14182;DHT22;7171;50.936;6.764;2022-08-18T10:53:11;22.00;99.90
14182;DHT22;7171;50.936;6.764;2022-08-18T10:55:47;22.00;99.90
14182;DHT22;7171;50.936;6.764;2022-08-18T10:58:35;22.10;99.90
14182;DHT22;7171;50.936;6.764;2022-08-18T11:01:19;22.10;99.90
14182;DHT22;7171;50.936;6.764;2022-08-18T11:04:01;22.90;99.90
14182;DHT22;7171;50.936;6.764;2022-08-18T11:06:36;22.20;99.90
14182;DHT22;7171;50.936;6.764;2022-08-18T11:09:03;22.30;99.90
14182;DHT22;7171;50.936;6.764;2022-08-18T11:11:35;22.40;99.90
14182;DHT22;7171;50.936;6.764;2022-08-18T11:14:12;22.50;99.90
14182;DHT22;7171;50.936;6.764;2022-08-18T11:16:48;22.50;99.90
14182;DHT22;7171;50.936;6.764;2022-08-18T11:19:18;22.60;99.90
14182;DHT22;7171;50.936;6.764;2022-08-18T11:21:48;22.70;99.90
14182;DHT22;7171;50.936;6.764;2022-08-18T11:24:19;22.80;99.90
14182;DHT22;7171;50.936;6.764;2022-08-18T11:26:50;23.20;99.90
14182;DHT22;7171;50.936;6.764;2022-08-18T11:29:29;23.00;99.90
14182;DHT22;7171;50.936;6.764;2022-08-18T11:32:00;23.10;99.90
14182;DHT22;7171;50.936;6.764;2022-08-18T11:34:34;23.10;99.90
14182;DHT22;7171;50.936;6.764;2022-08-18T11:37:06;23.40;99.90
14182;DHT22;7171;50.936;6.764;2022-08-18T11:39:40;23.40;99.90
14182;DHT22;7171;50.936;6.764;2022-08-18T11:42:09;23.50;99.90
14182;DHT22;7171;50.936;6.764;2022-08-18T11:44:37;23.50;99.90
14182;DHT22;7171;50.936;6.764;2022-08-18T11:47:12;23.50;99.90
14182;DHT22;7171;50.936;6.764;2022-08-18T11:49:49;23.60;99.90
14182;DHT22;7171;50.936;6.764;2022-08-18T11:52:19;23.60;99.90
14182;DHT22;7171;50.936;6.764;2022-08-18T11:54:48;23.60;99.90
14182;DHT22;7171;50.936;6.764;2022-08-18T11:57:48;23.60;99.90
14182;DHT22;7171;50.936;6.764;2022-08-18T12:03:29;23.60;99.90
14182;DHT22;7171;50.936;6.764;2022-08-18T12:05:58;23.50;99.90
14182;DHT22;7171;50.936;6.764;2022-08-18T12:08:36;23.50;99.90
14182;DHT22;7171;50.936;6.764;2022-08-18T12:11:06;23.40;99.90
14182;DHT22;7171;50.936;6.764;2022-08-18T12:13:43;23.40;99.90
14182;DHT22;7171;50.936;6.764;2022-08-18T12:16:13;23.40;99.90
14182;DHT22;7171;50.936;6.764;2022-08-18T12:18:42;23.40;99.90
14182;DHT22;7171;50.936;6.764;2022-08-18T12:21:09;23.50;99.90
14182;DHT22;7171;50.936;6.764;2022-08-18T12:23:39;23.40;99.90
14182;DHT22;7171;50.936;6.764;2022-08-18T12:26:07;23.50;99.90
14182;DHT22;7171;50.936;6.764;2022-08-18T12:28:34;23.50;99.90
14182;DHT22;7171;50.936;6.764;2022-08-18T12:31:03;23.50;99.90
14182;DHT22;7171;50.936;6.764;2022-08-18T12:33:30;23.50;99.90
14182;DHT22;7171;50.936;6.764;2022-08-18T12:35:57;23.60;99.90
14182;DHT22;7171;50.936;6.764;2022-08-18T12:38:24;23.60;99.90
14182;DHT22;7171;50.936;6.764;2022-08-18T12:40:51;23.60;99.90
14182;DHT22;7171;50.936;6.764;2022-08-18T12:43:18;23.60;99.90
14182;DHT22;7171;50.936;6.764;2022-08-18T12:45:45;23.70;99.90
14182;DHT22;7171;50.936;6.764;2022-08-18T12:48:13;23.70;99.90
14182;DHT22;7171;50.936;6.764;2022-08-18T12:50:41;23.80;99.90
14182;DHT22;7171;50.936;6.764;2022-08-18T12:53:08;23.90;99.90
14182;DHT22;7171;50.936;6.764;2022-08-18T12:55:38;23.90;99.90
14182;DHT22;7171;50.936;6.764;2022-08-18T12:58:05;24.00;99.90
14182;DHT22;7171;50.936;6.764;2022-08-18T13:00:33;24.00;99.90
14182;DHT22;7171;50.936;6.764;2022-08-18T13:03:00;24.10;99.90
14182;DHT22;7171;50.936;6.764;2022-08-18T13:05:29;24.10;99.90
14182;DHT22;7171;50.936;6.764;2022-08-18T13:07:57;24.10;99.90
14182;DHT22;7171;50.936;6.764;2022-08-18T13:10:26;24.20;99.90
14182;DHT22;7171;50.936;6.764;2022-08-18T13:12:53;24.20;99.90
14182;DHT22;7171;50.936;6.764;2022-08-18T13:15:19;24.20;99.90
14182;DHT22;7171;50.936;6.764;2022-08-18T13:17:46;24.30;99.90
14182;DHT22;7171;50.936;6.764;2022-08-18T13:20:14;24.30;99.90
14182;DHT22;7171;50.936;6.764;2022-08-18T13:22:43;24.40;99.90
14182;DHT22;7171;50.936;6.764;2022-08-18T13:25:12;24.50;99.90
14182;DHT22;7171;50.936;6.764;2022-08-18T13:27:39;24.50;99.90
14182;DHT22;7171;50.936;6.764;2022-08-18T13:30:09;24.50;99.90
14182;DHT22;7171;50.936;6.764;2022-08-18T13:32:37;24.60;99.90
14182;DHT22;7171;50.936;6.764;2022-08-18T13:35:07;24.60;99.90
14182;DHT22;7171;50.936;6.764;2022-08-18T13:37:33;24.60;99.90
14182;DHT22;7171;50.936;6.764;2022-08-18T13:40:03;24.60;99.90
14182;DHT22;7171;50.936;6.764;2022-08-18T13:42:30;24.50;99.90
14182;DHT22;7171;50.936;6.764;2022-08-18T13:45:06;24.50;99.90
14182;DHT22;7171;50.936;6.764;2022-08-18T13:47:33;24.50;99.90
14182;DHT22;7171;50.936;6.764;2022-08-18T13:50:00;24.40;99.90
14182;DHT22;7171;50.936;6.764;2022-08-18T13:52:28;24.40;99.90
14182;DHT22;7171;50.936;6.764;2022-08-18T13:54:54;24.40;99.90
14182;DHT22;7171;50.936;6.764;2022-08-18T13:57:23;24.40;99.90
14182;DHT22;7171;50.936;6.764;2022-08-18T13:59:49;24.50;99.90
14182;DHT22;7171;50.936;6.764;2022-08-18T14:02:16;24.50;99.90
14182;DHT22;7171;50.936;6.764;2022-08-18T14:04:43;24.50;99.90
14182;DHT22;7171;50.936;6.764;2022-08-18T14:07:10;24.50;99.90
14182;DHT22;7171;50.936;6.764;2022-08-18T14:09:37;24.50;99.90
14182;DHT22;7171;50.936;6.764;2022-08-18T14:12:06;24.50;99.90
14182;DHT22;7171;50.936;6.764;2022-08-18T14:14:35;24.50;99.90
14182;DHT22;7171;50.936;6.764;2022-08-18T14:17:02;24.50;99.90
14182;DHT22;7171;50.936;6.764;2022-08-18T14:19:29;24.40;99.90
14182;DHT22;7171;50.936;6.764;2022-08-18T14:22:13;24.40;99.90
14182;DHT22;7171;50.936;6.764;2022-08-18T14:24:57;24.40;99.90
14182;DHT22;7171;50.936;6.764;2022-08-18T14:27:41;24.40;99.90
14182;DHT22;7171;50.936;6.764;2022-08-18T14:30:11;24.40;99.90
14182;DHT22;7171;50.936;6.764;2022-08-18T14:32:40;24.40;99.90
14182;DHT22;7171;50.936;6.764;2022-08-18T14:35:10;24.40;99.90
14182;DHT22;7171;50.936;6.764;2022-08-18T14:37:37;24.40;99.90
14182;DHT22;7171;50.936;6.764;2022-08-18T14:40:06;24.50;99.90
14182;DHT22;7171;50.936;6.764;2022-08-18T14:42:33;24.50;99.90
14182;DHT22;7171;50.936;6.764;2022-08-18T14:45:00;24.50;99.90
14182;DHT22;7171;50.936;6.764;2022-08-18T14:47:29;24.60;99.90
14182;DHT22;7171;50.936;6.764;2022-08-18T14:49:55;24.70;99.90
14182;DHT22;7171;50.936;6.764;2022-08-18T14:52:23;24.70;99.90
14182;DHT22;7171;50.936;6.764;2022-08-18T14:54:50;24.80;99.90
14182;DHT22;7171;50.936;6.764;2022-08-18T14:57:17;24.80;99.90
14182;DHT22;7171;50.936;6.764;2022-08-18T14:59:44;24.90;99.90
14182;DHT22;7171;50.936;6.764;2022-08-18T15:02:11;25.00;99.90
14182;DHT22;7171;50.936;6.764;2022-08-18T15:04:40;25.00;99.90
14182;DHT22;7171;50.936;6.764;2022-08-18T15:07:06;25.00;99.90
14182;DHT22;7171;50.936;6.764;2022-08-18T15:09:33;25.10;99.90
14182;DHT22;7171;50.936;6.764;2022-08-18T15:12:00;25.10;99.90
14182;DHT22;7171;50.936;6.764;2022-08-18T15:14:29;25.10;99.90
14182;DHT22;7171;50.936;6.764;2022-08-18T15:16:56;25.20;99.90
14182;DHT22;7171;50.936;6.764;2022-08-18T15:19:23;25.30;99.90
14182;DHT22;7171;50.936;6.764;2022-08-18T15:21:52;25.50;99.90
14182;DHT22;7171;50.936;6.764;2022-08-18T15:24:39;25.30;99.90
14182;DHT22;7171;50.936;6.764;2022-08-18T15:27:28;25.40;99.90
14182;DHT22;7171;50.936;6.764;2022-08-18T15:29:56;25.10;99.90
14182;DHT22;7171;50.936;6.764;2022-08-18T15:32:23;25.40;99.90
14182;DHT22;7171;50.936;6.764;2022-08-18T15:34:50;25.40;99.90
14182;DHT22;7171;50.936;6.764;2022-08-18T15:37:19;25.50;99.90
14182;DHT22;7171;50.936;6.764;2022-08-18T15:39:46;25.50;99.90
14182;DHT22;7171;50.936;6.764;2022-08-18T15:42:13;25.50;99.90
14182;DHT22;7171;50.936;6.764;2022-08-18T15:44:40;25.50;99.90
14182;DHT22;7171;50.936;6.764;2022-08-18T15:47:07;25.60;99.90
14182;DHT22;7171;50.936;6.764;2022-08-18T15:49:33;25.60;99.90
14182;DHT22;7171;50.936;6.764;2022-08-18T15:52:00;25.70;99.90
14182;DHT22;7171;50.936;6.764;2022-08-18T15:54:28;25.60;99.90
14182;DHT22;7171;50.936;6.764;2022-08-18T15:56:55;25.70;99.90
14182;DHT22;7171;50.936;6.764;2022-08-18T15:59:22;25.70;99.90
14182;DHT22;7171;50.936;6.764;2022-08-18T16:01:49;25.80;99.90
14182;DHT22;7171;50.936;6.764;2022-08-18T16:04:16;25.80;99.90
14182;DHT22;7171;50.936;6.764;2022-08-18T16:06:43;25.90;99.90
14182;DHT22;7171;50.936;6.764;2022-08-18T16:19:04;25.80;99.90
14182;DHT22;7171;50.936;6.764;2022-08-18T16:21:32;25.80;99.90
14182;DHT22;7171;50.936;6.764;2022-08-18T16:24:05;25.80;99.90
14182;DHT22;7171;50.936;6.764;2022-08-18T16:26:32;25.70;99.90
14182;DHT22;7171;50.936;6.764;2022-08-18T16:29:00;25.70;99.90
14182;DHT22;7171;50.936;6.764;2022-08-18T16:41:18;25.50;99.90
14182;DHT22;7171;50.936;6.764;2022-08-18T16:43:46;25.50;99.90
14182;DHT22;7171;50.936;6.764;2022-08-18T16:46:16;25.40;99.90
14182;DHT22;7171;50.936;6.764;2022-08-18T16:48:43;25.50;99.90
14182;DHT22;7171;50.936;6.764;2022-08-18T16:53:38;25.40;99.90
14182;DHT22;7171;50.936;6.764;2022-08-18T16:58:36;25.20;99.90
14182;DHT22;7171;50.936;6.764;2022-08-18T17:01:22;25.30;99.90
14182;DHT22;7171;50.936;6.764;2022-08-18T17:04:09;25.30;99.90
14182;DHT22;7171;50.936;6.764;2022-08-18T17:06:38;25.20;99.90
14182;DHT22;7171;50.936;6.764;2022-08-18T17:11:35;25.20;99.90